createdAt,value
2017-10-08T00:00:44.566Z,0
2017-10-08T00:01:44.907Z,0
2017-10-08T00:02:44.924Z,0
2017-10-08T00:03:44.295Z,0
2017-10-08T00:04:44.956Z,0
2017-10-08T00:05:57.756Z,0
2017-10-08T00:06:44.980Z,0
2017-10-08T00:07:44.377Z,0
2017-10-08T00:08:44.690Z,0
2017-10-08T00:09:44.061Z,0
2017-10-08T00:10:44.081Z,0
2017-10-08T00:11:44.415Z,0
2017-10-08T00:12:44.768Z,0
2017-10-08T00:13:45.093Z,0
2017-10-08T00:14:45.433Z,0
2017-10-08T00:15:44.806Z,0
2017-10-08T00:16:44.825Z,0
2017-10-08T00:17:45.165Z,0
2017-10-08T00:18:44.534Z,0
2017-10-08T00:19:45.192Z,0
2017-10-08T00:20:44.884Z,0
2017-10-08T00:21:45.223Z,0
2017-10-08T00:22:45.240Z,0
2017-10-08T00:23:44.933Z,0
2017-10-08T00:24:45.276Z,0
2017-10-08T00:25:44.965Z,0
2017-10-08T00:26:44.664Z,0
2017-10-08T00:27:45.320Z,0
2017-10-08T00:28:45.019Z,0
2017-10-08T00:29:44.388Z,0
2017-10-08T00:30:45.477Z,0
2017-10-08T00:31:45.383Z,0
2017-10-08T00:32:45.082Z,0
2017-10-08T00:33:44.777Z,0
2017-10-08T00:34:44.793Z,0
2017-10-08T00:35:45.505Z,0
2017-10-08T00:36:45.147Z,0
2017-10-08T00:37:45.162Z,0
2017-10-08T00:38:45.955Z,0
2017-10-08T00:39:45.194Z,0
2017-10-08T00:40:45.983Z,0
2017-10-08T00:41:45.225Z,0
2017-10-08T00:42:45.804Z,0
2017-10-08T00:43:45.678Z,0
2017-10-08T00:44:45.927Z,0
2017-10-08T00:45:45.628Z,0
2017-10-08T00:46:45.627Z,0
2017-10-08T00:47:45.647Z,0
2017-10-08T00:48:45.343Z,0
2017-10-08T00:49:45.365Z,0
2017-10-08T00:50:45.375Z,0
2017-10-08T00:51:46.044Z,0
2017-10-08T00:52:45.935Z,0
2017-10-08T00:53:45.741Z,0
2017-10-08T00:54:45.440Z,0
2017-10-08T00:55:45.787Z,0
2017-10-08T00:56:44.828Z,0
2017-10-08T00:57:44.843Z,0
2017-10-08T00:58:45.503Z,0
2017-10-08T00:59:45.531Z,0
2017-10-08T01:00:45.215Z,0
2017-10-08T01:01:45.231Z,0
2017-10-08T01:02:45.895Z,0
2017-10-08T01:03:45.754Z,0
2017-10-08T01:04:45.309Z,0
2017-10-08T01:05:45.625Z,0
2017-10-08T01:06:45.633Z,0
2017-10-08T01:07:45.331Z,0
2017-10-08T01:08:45.664Z,0
2017-10-08T01:09:46.010Z,0
2017-10-08T01:10:46.024Z,0
2017-10-08T01:11:46.676Z,0
2017-10-08T01:12:45.621Z,0
2017-10-08T01:13:46.285Z,0
2017-10-08T01:14:45.915Z,0
2017-10-08T01:15:46.676Z,0
2017-10-08T01:16:45.643Z,0
2017-10-08T01:17:45.662Z,0
2017-10-08T01:18:46.018Z,0
2017-10-08T01:19:45.656Z,0
2017-10-08T01:20:45.771Z,0
2017-10-08T01:21:46.025Z,0
2017-10-08T01:22:46.150Z,0
2017-10-08T01:23:45.789Z,0
2017-10-08T01:24:45.818Z,0
2017-10-08T01:25:46.419Z,0
2017-10-08T01:26:46.161Z,0
2017-10-08T01:27:46.949Z,0
2017-10-08T01:28:46.202Z,0
2017-10-08T01:29:46.576Z,0
2017-10-08T01:30:45.736Z,0
2017-10-08T01:31:46.459Z,0
2017-10-08T01:32:45.734Z,0
2017-10-08T01:33:46.134Z,0
2017-10-08T01:34:46.547Z,0
2017-10-08T01:35:46.549Z,0
2017-10-08T01:36:46.568Z,0
2017-10-08T01:37:46.269Z,0
2017-10-08T01:38:46.594Z,0
2017-10-08T01:39:46.813Z,0
2017-10-08T01:40:47.080Z,0
2017-10-08T01:41:45.884Z,0
2017-10-08T01:42:46.224Z,0
2017-10-08T01:43:45.961Z,0
2017-10-08T01:44:45.621Z,0
2017-10-08T01:45:46.627Z,0
2017-10-08T01:46:46.010Z,0
2017-10-08T01:47:46.468Z,0
2017-10-08T01:48:46.851Z,0
2017-10-08T01:49:47.083Z,0
2017-10-08T01:50:45.705Z,0
2017-10-08T01:51:46.046Z,0
2017-10-08T01:52:46.064Z,0
2017-10-08T01:53:46.207Z,0
2017-10-08T01:54:46.906Z,0
2017-10-08T01:55:46.527Z,0
2017-10-08T01:56:47.255Z,0
2017-10-08T01:57:46.487Z,0
2017-10-08T01:58:46.157Z,0
2017-10-08T01:59:46.677Z,0
2017-10-08T02:00:46.669Z,0
2017-10-08T02:01:45.881Z,0
2017-10-08T02:02:47.245Z,0
2017-10-08T02:03:46.670Z,0
2017-10-08T02:04:46.797Z,0
2017-10-08T02:05:46.595Z,0
2017-10-08T02:06:46.493Z,0
2017-10-08T02:07:46.300Z,0
2017-10-08T02:08:46.320Z,0
2017-10-08T02:09:46.659Z,0
2017-10-08T02:10:46.998Z,0
2017-10-08T02:11:47.026Z,0
2017-10-08T02:12:46.704Z,0
2017-10-08T02:13:46.728Z,0
2017-10-08T02:14:46.740Z,0
2017-10-08T02:15:46.802Z,0
2017-10-08T02:16:46.767Z,0
2017-10-08T02:17:47.537Z,0
2017-10-08T02:18:46.801Z,0
2017-10-08T02:19:46.826Z,0
2017-10-08T02:20:46.886Z,0
2017-10-08T02:21:47.510Z,0
2017-10-08T02:22:47.188Z,0
2017-10-08T02:23:46.879Z,0
2017-10-08T02:24:46.898Z,0
2017-10-08T02:25:47.567Z,0
2017-10-08T02:26:47.578Z,0
2017-10-08T02:27:46.947Z,0
2017-10-08T02:28:46.966Z,0
2017-10-08T02:29:47.310Z,0
2017-10-08T02:30:47.010Z,0
2017-10-08T02:31:47.345Z,0
2017-10-08T02:32:47.352Z,0
2017-10-08T02:33:47.381Z,0
2017-10-08T02:34:46.744Z,0
2017-10-08T02:35:47.138Z,0
2017-10-08T02:36:47.426Z,0
2017-10-08T02:37:47.180Z,0
2017-10-08T02:38:47.177Z,0
2017-10-08T02:39:47.484Z,0
2017-10-08T02:40:47.490Z,0
2017-10-08T02:41:47.830Z,0
2017-10-08T02:42:47.542Z,0
2017-10-08T02:43:48.063Z,0
2017-10-08T02:44:47.227Z,0
2017-10-08T02:45:47.583Z,0
2017-10-08T02:46:48.127Z,0
2017-10-08T02:47:47.397Z,0
2017-10-08T02:48:47.782Z,0
2017-10-08T02:49:47.797Z,0
2017-10-08T02:50:47.832Z,0
2017-10-08T02:51:48.235Z,0
2017-10-08T02:52:47.841Z,0
2017-10-08T02:53:47.623Z,0
2017-10-08T02:54:48.247Z,0
2017-10-08T02:55:47.247Z,0
2017-10-08T02:56:47.937Z,0
2017-10-08T02:57:47.950Z,0
2017-10-08T02:58:47.314Z,0
2017-10-08T02:59:47.978Z,0
2017-10-08T03:00:47.651Z,0
2017-10-08T03:01:47.686Z,0
2017-10-08T03:02:47.528Z,0
2017-10-08T03:03:48.173Z,0
2017-10-08T03:04:47.880Z,0
2017-10-08T03:05:47.715Z,0
2017-10-08T03:06:47.897Z,0
2017-10-08T03:07:47.921Z,0
2017-10-08T03:08:47.626Z,0
2017-10-08T03:09:48.282Z,0
2017-10-08T03:10:47.670Z,0
2017-10-08T03:11:48.121Z,0
2017-10-08T03:12:47.689Z,0
2017-10-08T03:13:48.432Z,0
2017-10-08T03:14:47.826Z,0
2017-10-08T03:15:47.468Z,0
2017-10-08T03:16:47.096Z,0
2017-10-08T03:17:48.112Z,0
2017-10-08T03:18:47.131Z,0
2017-10-08T03:19:48.114Z,0
2017-10-08T03:20:48.071Z,0
2017-10-08T03:21:47.744Z,0
2017-10-08T03:22:47.517Z,0
2017-10-08T03:23:48.061Z,0
2017-10-08T03:24:48.194Z,0
2017-10-08T03:25:47.890Z,0
2017-10-08T03:26:48.350Z,0
2017-10-08T03:27:47.697Z,0
2017-10-08T03:28:47.745Z,0
2017-10-08T03:29:48.041Z,0
2017-10-08T03:30:48.713Z,0
2017-10-08T03:31:48.402Z,0
2017-10-08T03:32:48.116Z,0
2017-10-08T03:33:48.193Z,0
2017-10-08T03:34:49.024Z,0
2017-10-08T03:35:48.399Z,0
2017-10-08T03:36:47.753Z,0
2017-10-08T03:37:48.410Z,0
2017-10-08T03:38:47.783Z,0
2017-10-08T03:39:48.764Z,0
2017-10-08T03:40:48.139Z,0
2017-10-08T03:41:47.833Z,0
2017-10-08T03:42:48.168Z,0
2017-10-08T03:43:48.505Z,0
2017-10-08T03:44:48.521Z,0
2017-10-08T03:45:48.213Z,0
2017-10-08T03:46:48.233Z,0
2017-10-08T03:47:48.273Z,0
2017-10-08T03:48:48.290Z,0
2017-10-08T03:49:48.663Z,0
2017-10-08T03:50:47.993Z,0
2017-10-08T03:51:47.998Z,0
2017-10-08T03:52:48.530Z,0
2017-10-08T03:53:48.023Z,0
2017-10-08T03:54:48.357Z,0
2017-10-08T03:55:48.131Z,0
2017-10-08T03:56:48.715Z,0
2017-10-08T03:57:48.405Z,0
2017-10-08T03:58:48.753Z,0
2017-10-08T03:59:48.784Z,0
2017-10-08T04:00:48.781Z,0
2017-10-08T04:01:48.799Z,0
2017-10-08T04:02:48.166Z,0
2017-10-08T04:03:49.152Z,0
2017-10-08T04:04:49.168Z,0
2017-10-08T04:05:48.859Z,0
2017-10-08T04:06:48.233Z,0
2017-10-08T04:07:48.894Z,0
2017-10-08T04:08:48.266Z,0
2017-10-08T04:09:48.286Z,0
2017-10-08T04:10:48.793Z,0
2017-10-08T04:11:48.658Z,0
2017-10-08T04:12:48.659Z,0
2017-10-08T04:13:48.996Z,0
2017-10-08T04:14:49.334Z,0
2017-10-08T04:15:48.381Z,0
2017-10-08T04:16:48.718Z,0
2017-10-08T04:17:48.412Z,0
2017-10-08T04:18:49.073Z,0
2017-10-08T04:19:49.092Z,0
2017-10-08T04:20:48.464Z,0
2017-10-08T04:21:49.123Z,0
2017-10-08T04:22:48.820Z,0
2017-10-08T04:23:48.830Z,0
2017-10-08T04:24:48.898Z,0
2017-10-08T04:25:48.863Z,0
2017-10-08T04:26:48.880Z,0
2017-10-08T04:27:49.224Z,0
2017-10-08T04:28:49.236Z,0
2017-10-08T04:29:49.253Z,0
2017-10-08T04:30:48.948Z,0
2017-10-08T04:31:48.639Z,0
2017-10-08T04:32:48.981Z,0
2017-10-08T04:33:49.322Z,0
2017-10-08T04:34:49.014Z,0
2017-10-08T04:35:49.350Z,0
2017-10-08T04:36:48.731Z,0
2017-10-08T04:37:49.392Z,0
2017-10-08T04:38:49.396Z,0
2017-10-08T04:39:48.772Z,0
2017-10-08T04:40:48.786Z,0
2017-10-08T04:41:49.446Z,0
2017-10-08T04:42:49.895Z,0
2017-10-08T04:43:49.910Z,0
2017-10-08T04:44:49.614Z,0
2017-10-08T04:45:48.871Z,0
2017-10-08T04:46:49.638Z,0
2017-10-08T04:47:49.543Z,0
2017-10-08T04:48:49.883Z,0
2017-10-08T04:49:49.256Z,0
2017-10-08T04:50:49.595Z,0
2017-10-08T04:51:49.288Z,0
2017-10-08T04:52:49.630Z,0
2017-10-08T04:53:49.329Z,0
2017-10-08T04:54:49.980Z,0
2017-10-08T04:55:49.355Z,0
2017-10-08T04:56:49.378Z,0
2017-10-08T04:57:49.382Z,0
2017-10-08T04:58:49.076Z,0
2017-10-08T04:59:49.738Z,0
2017-10-08T05:00:49.431Z,0
2017-10-08T05:01:49.779Z,0
2017-10-08T05:02:49.792Z,0
2017-10-08T05:03:49.808Z,0
2017-10-08T05:04:49.183Z,0
2017-10-08T05:05:49.837Z,0
2017-10-08T05:06:49.212Z,0
2017-10-08T05:07:48.908Z,0
2017-10-08T05:08:49.890Z,0
2017-10-08T05:09:49.578Z,0
2017-10-08T05:10:50.242Z,0
2017-10-08T05:11:49.935Z,0
2017-10-08T05:12:49.312Z,0
2017-10-08T05:13:49.968Z,0
2017-10-08T05:14:49.688Z,0
2017-10-08T05:15:49.997Z,0
2017-10-08T05:16:50.044Z,0
2017-10-08T05:17:49.718Z,0
2017-10-08T05:18:50.051Z,0
2017-10-08T05:19:49.422Z,0
2017-10-08T05:20:50.083Z,0
2017-10-08T05:21:49.133Z,0
2017-10-08T05:22:49.789Z,0
2017-10-08T05:23:50.133Z,0
2017-10-08T05:24:50.146Z,0
2017-10-08T05:25:49.859Z,0
2017-10-08T05:26:49.219Z,0
2017-10-08T05:27:50.195Z,0
2017-10-08T05:28:50.211Z,0
2017-10-08T05:29:49.589Z,0
2017-10-08T05:30:50.245Z,0
2017-10-08T05:31:49.939Z,0
2017-10-08T05:32:50.072Z,0
2017-10-08T05:33:50.297Z,0
2017-10-08T05:34:49.668Z,0
2017-10-08T05:35:50.095Z,0
2017-10-08T05:36:50.019Z,0
2017-10-08T05:37:50.041Z,0
2017-10-08T05:38:50.054Z,0
2017-10-08T05:39:49.746Z,0
2017-10-08T05:40:50.735Z,0
2017-10-08T05:41:50.754Z,0
2017-10-08T05:42:50.765Z,0
2017-10-08T05:43:50.458Z,0
2017-10-08T05:44:50.270Z,0
2017-10-08T05:45:50.543Z,0
2017-10-08T05:46:50.283Z,0
2017-10-08T05:47:49.877Z,0
2017-10-08T05:48:50.535Z,0
2017-10-08T05:49:50.983Z,0
2017-10-08T05:50:50.577Z,0
2017-10-08T05:51:50.583Z,0
2017-10-08T05:52:49.965Z,0
2017-10-08T05:53:50.303Z,0
2017-10-08T05:54:51.000Z,0
2017-10-08T05:55:50.015Z,0
2017-10-08T05:56:50.343Z,0
2017-10-08T05:57:50.705Z,0
2017-10-08T05:58:50.705Z,0
2017-10-08T05:59:50.836Z,0
2017-10-08T06:00:50.093Z,0
2017-10-08T06:01:50.860Z,0
2017-10-08T06:02:50.861Z,0
2017-10-08T06:03:50.872Z,0
2017-10-08T06:04:51.125Z,0
2017-10-08T06:05:50.174Z,0
2017-10-08T06:06:50.510Z,0
2017-10-08T06:07:50.212Z,0
2017-10-08T06:08:50.912Z,0
2017-10-08T06:09:50.684Z,0
2017-10-08T06:10:51.216Z,0
2017-10-08T06:11:50.984Z,0
2017-10-08T06:12:50.708Z,0
2017-10-08T06:13:51.006Z,0
2017-10-08T06:14:51.289Z,0
2017-10-08T06:15:51.312Z,5
2017-10-08T06:16:51.095Z,5
2017-10-08T06:17:50.711Z,5
2017-10-08T06:18:51.033Z,5
2017-10-08T06:19:50.842Z,5
2017-10-08T06:20:50.850Z,5
2017-10-08T06:21:51.081Z,5
2017-10-08T06:22:50.473Z,0
2017-10-08T06:23:50.874Z,0
2017-10-08T06:24:51.461Z,0
2017-10-08T06:25:50.873Z,0
2017-10-08T06:26:50.520Z,0
2017-10-08T06:27:51.190Z,0
2017-10-08T06:28:50.550Z,0
2017-10-08T06:29:50.976Z,0
2017-10-08T06:30:51.228Z,5
2017-10-08T06:31:50.279Z,0
2017-10-08T06:32:50.723Z,0
2017-10-08T06:33:51.602Z,5
2017-10-08T06:34:50.720Z,5
2017-10-08T06:35:51.019Z,5
2017-10-08T06:36:51.322Z,10
2017-10-08T06:37:50.718Z,5
2017-10-08T06:38:50.726Z,5
2017-10-08T06:39:51.377Z,5
2017-10-08T06:40:51.396Z,5
2017-10-08T06:41:51.094Z,5
2017-10-08T06:42:50.779Z,5
2017-10-08T06:43:51.125Z,5
2017-10-08T06:44:51.140Z,5
2017-10-08T06:45:51.482Z,5
2017-10-08T06:46:50.846Z,5
2017-10-08T06:47:51.198Z,5
2017-10-08T06:48:50.557Z,5
2017-10-08T06:49:51.547Z,5
2017-10-08T06:50:50.913Z,5
2017-10-08T06:51:51.249Z,5
2017-10-08T06:52:51.270Z,5
2017-10-08T06:53:51.611Z,5
2017-10-08T06:54:50.982Z,5
2017-10-08T06:55:51.640Z,5
2017-10-08T06:56:51.020Z,5
2017-10-08T06:57:51.046Z,5
2017-10-08T06:58:51.370Z,5
2017-10-08T06:59:51.708Z,5
2017-10-08T07:00:51.725Z,5
2017-10-08T07:01:51.424Z,5
2017-10-08T07:02:51.508Z,5
2017-10-08T07:03:51.261Z,5
2017-10-08T07:04:51.471Z,5
2017-10-08T07:05:51.823Z,5
2017-10-08T07:06:52.148Z,5
2017-10-08T07:07:51.845Z,5
2017-10-08T07:08:50.893Z,5
2017-10-08T07:09:51.556Z,10
2017-10-08T07:10:50.926Z,5
2017-10-08T07:11:51.681Z,5
2017-10-08T07:12:52.159Z,5
2017-10-08T07:13:51.947Z,5
2017-10-08T07:14:51.313Z,5
2017-10-08T07:15:51.975Z,5
2017-10-08T07:16:51.675Z,5
2017-10-08T07:17:51.367Z,5
2017-10-08T07:18:51.706Z,5
2017-10-08T07:19:52.371Z,5
2017-10-08T07:20:51.883Z,5
2017-10-08T07:21:52.079Z,0
2017-10-08T07:22:51.637Z,5
2017-10-08T07:23:51.955Z,5
2017-10-08T07:24:51.640Z,5
2017-10-08T07:25:52.286Z,5
2017-10-08T07:26:52.289Z,5
2017-10-08T07:27:51.949Z,5
2017-10-08T07:28:51.769Z,5
2017-10-08T07:29:51.572Z,5
2017-10-08T07:30:52.236Z,0
2017-10-08T07:31:51.918Z,0
2017-10-08T07:32:52.262Z,0
2017-10-08T07:33:51.640Z,0
2017-10-08T07:34:51.655Z,0
2017-10-08T07:35:52.106Z,0
2017-10-08T07:36:52.099Z,5
2017-10-08T07:37:52.575Z,5
2017-10-08T07:38:51.720Z,5
2017-10-08T07:39:52.516Z,5
2017-10-08T07:40:52.273Z,5
2017-10-08T07:41:52.268Z,5
2017-10-08T07:42:51.812Z,10
2017-10-08T07:43:52.508Z,10
2017-10-08T07:44:52.467Z,5
2017-10-08T07:45:52.273Z,5
2017-10-08T07:46:51.853Z,5
2017-10-08T07:47:52.521Z,10
2017-10-08T07:48:51.566Z,15
2017-10-08T07:49:52.231Z,15
2017-10-08T07:50:52.244Z,10
2017-10-08T07:51:51.947Z,10
2017-10-08T07:52:52.272Z,10
2017-10-08T07:53:52.286Z,10
2017-10-08T07:54:52.959Z,10
2017-10-08T07:55:52.654Z,15
2017-10-08T07:56:52.146Z,10
2017-10-08T07:57:52.678Z,10
2017-10-08T07:58:52.177Z,15
2017-10-08T07:59:52.714Z,15
2017-10-08T08:00:52.766Z,10
2017-10-08T08:01:52.747Z,10
2017-10-08T08:02:53.162Z,15
2017-10-08T08:03:52.937Z,10
2017-10-08T08:04:52.484Z,15
2017-10-08T08:05:52.170Z,10
2017-10-08T08:06:52.184Z,5
2017-10-08T08:07:53.279Z,10
2017-10-08T08:08:52.543Z,10
2017-10-08T08:09:52.559Z,10
2017-10-08T08:10:52.574Z,15
2017-10-08T08:11:52.603Z,10
2017-10-08T08:12:51.977Z,10
2017-10-08T08:13:53.283Z,10
2017-10-08T08:14:52.978Z,15
2017-10-08T08:15:52.801Z,15
2017-10-08T08:16:53.322Z,10
2017-10-08T08:17:53.018Z,10
2017-10-08T08:18:53.149Z,5
2017-10-08T08:19:52.409Z,10
2017-10-08T08:20:53.069Z,15
2017-10-08T08:21:52.764Z,15
2017-10-08T08:22:52.457Z,10
2017-10-08T08:23:52.795Z,10
2017-10-08T08:24:53.227Z,15
2017-10-08T08:25:53.153Z,15
2017-10-08T08:26:52.847Z,10
2017-10-08T08:27:52.878Z,10
2017-10-08T08:28:52.881Z,10
2017-10-08T08:29:52.993Z,10
2017-10-08T08:30:53.702Z,10
2017-10-08T08:31:53.258Z,15
2017-10-08T08:32:53.278Z,15
2017-10-08T08:33:52.975Z,10
2017-10-08T08:34:52.762Z,15
2017-10-08T08:35:53.327Z,15
2017-10-08T08:36:53.665Z,10
2017-10-08T08:37:53.039Z,5
2017-10-08T08:38:52.737Z,10
2017-10-08T08:39:53.192Z,10
2017-10-08T08:40:53.085Z,15
2017-10-08T08:41:52.826Z,15
2017-10-08T08:42:53.441Z,15
2017-10-08T08:43:53.545Z,20
2017-10-08T08:44:53.152Z,15
2017-10-08T08:45:53.364Z,15
2017-10-08T08:46:52.897Z,20
2017-10-08T08:47:52.561Z,20
2017-10-08T08:48:53.685Z,20
2017-10-08T08:49:53.692Z,15
2017-10-08T08:50:52.939Z,15
2017-10-08T08:51:53.721Z,25
2017-10-08T08:52:52.646Z,30
2017-10-08T08:53:54.032Z,35
2017-10-08T08:54:53.008Z,40
2017-10-08T08:55:53.669Z,45
2017-10-08T08:56:53.375Z,35
2017-10-08T08:57:53.056Z,25
2017-10-08T08:58:53.393Z,20
2017-10-08T08:59:53.745Z,20
2017-10-08T09:00:54.079Z,25
2017-10-08T09:01:53.447Z,20
2017-10-08T09:02:53.461Z,25
2017-10-08T09:03:53.928Z,25
2017-10-08T09:04:53.815Z,25
2017-10-08T09:05:53.640Z,25
2017-10-08T09:06:53.860Z,20
2017-10-08T09:07:53.876Z,20
2017-10-08T09:08:53.907Z,20
2017-10-08T09:09:53.950Z,20
2017-10-08T09:10:53.320Z,20
2017-10-08T09:11:52.994Z,15
2017-10-08T09:12:53.635Z,10
2017-10-08T09:13:54.318Z,15
2017-10-08T09:14:53.994Z,5
2017-10-08T09:15:54.041Z,5
2017-10-08T09:16:53.719Z,0
2017-10-08T09:17:53.725Z,0
2017-10-08T09:18:53.740Z,10
2017-10-08T09:19:54.090Z,15
2017-10-08T09:20:53.778Z,20
2017-10-08T09:21:53.603Z,30
2017-10-08T09:22:53.865Z,30
2017-10-08T09:23:53.860Z,25
2017-10-08T09:24:53.845Z,25
2017-10-08T09:25:53.624Z,20
2017-10-08T09:26:53.634Z,20
2017-10-08T09:27:54.219Z,15
2017-10-08T09:28:53.916Z,10
2017-10-08T09:29:53.932Z,10
2017-10-08T09:30:54.271Z,10
2017-10-08T09:31:54.037Z,15
2017-10-08T09:32:53.990Z,25
2017-10-08T09:33:54.030Z,35
2017-10-08T09:34:54.024Z,45
2017-10-08T09:35:54.374Z,55
2017-10-08T09:36:54.717Z,50
2017-10-08T09:37:53.770Z,35
2017-10-08T09:38:53.862Z,20
2017-10-08T09:39:54.119Z,15
2017-10-08T09:40:53.831Z,15
2017-10-08T09:41:54.164Z,15
2017-10-08T09:42:54.169Z,15
2017-10-08T09:43:54.508Z,10
2017-10-08T09:44:54.212Z,10
2017-10-08T09:45:53.935Z,10
2017-10-08T09:46:54.249Z,10
2017-10-08T09:47:54.898Z,15
2017-10-08T09:48:54.265Z,15
2017-10-08T09:49:54.621Z,15
2017-10-08T09:50:54.632Z,10
2017-10-08T09:51:54.321Z,10
2017-10-08T09:52:54.709Z,15
2017-10-08T09:53:54.428Z,15
2017-10-08T09:54:54.701Z,10
2017-10-08T09:55:55.053Z,10
2017-10-08T09:56:54.408Z,10
2017-10-08T09:57:54.806Z,15
2017-10-08T09:58:54.213Z,15
2017-10-08T09:59:54.481Z,15
2017-10-08T10:00:54.479Z,15
2017-10-08T10:01:54.846Z,10
2017-10-08T10:02:54.765Z,10
2017-10-08T10:03:54.539Z,10
2017-10-08T10:04:54.245Z,10
2017-10-08T10:05:54.363Z,10
2017-10-08T10:06:54.265Z,10
2017-10-08T10:07:55.421Z,5
2017-10-08T10:08:54.061Z,10
2017-10-08T10:09:54.318Z,15
2017-10-08T10:10:54.981Z,15
2017-10-08T10:11:54.675Z,15
2017-10-08T10:12:55.315Z,15
2017-10-08T10:13:55.357Z,15
2017-10-08T10:14:54.414Z,15
2017-10-08T10:15:54.948Z,10
2017-10-08T10:16:54.763Z,10
2017-10-08T10:17:54.489Z,20
2017-10-08T10:18:54.607Z,20
2017-10-08T10:19:55.596Z,20
2017-10-08T10:20:54.514Z,25
2017-10-08T10:21:54.625Z,30
2017-10-08T10:22:55.289Z,30
2017-10-08T10:23:55.457Z,35
2017-10-08T10:24:55.463Z,50
2017-10-08T10:25:55.470Z,65
2017-10-08T10:26:54.317Z,65
2017-10-08T10:27:55.341Z,45
2017-10-08T10:28:55.341Z,40
2017-10-08T10:29:55.646Z,30
2017-10-08T10:30:55.781Z,25
2017-10-08T10:31:55.047Z,30
2017-10-08T10:32:55.789Z,20
2017-10-08T10:33:55.070Z,20
2017-10-08T10:34:55.082Z,20
2017-10-08T10:35:55.118Z,15
2017-10-08T10:36:54.892Z,10
2017-10-08T10:37:55.171Z,10
2017-10-08T10:38:55.813Z,10
2017-10-08T10:39:55.219Z,10
2017-10-08T10:40:54.550Z,10
2017-10-08T10:41:55.215Z,10
2017-10-08T10:42:55.372Z,15
2017-10-08T10:43:55.742Z,15
2017-10-08T10:44:55.063Z,30
2017-10-08T10:45:55.052Z,30
2017-10-08T10:46:55.708Z,25
2017-10-08T10:47:55.399Z,45
2017-10-08T10:48:55.566Z,40
2017-10-08T10:49:55.749Z,45
2017-10-08T10:50:55.248Z,35
2017-10-08T10:51:55.887Z,25
2017-10-08T10:52:55.866Z,20
2017-10-08T10:53:55.454Z,20
2017-10-08T10:54:55.780Z,25
2017-10-08T10:55:55.589Z,30
2017-10-08T10:56:55.659Z,25
2017-10-08T10:57:56.143Z,35
2017-10-08T10:58:55.840Z,45
2017-10-08T10:59:55.208Z,45
2017-10-08T11:00:55.891Z,35
2017-10-08T11:01:55.245Z,30
2017-10-08T11:02:56.093Z,25
2017-10-08T11:03:55.723Z,20
2017-10-08T11:04:55.743Z,20
2017-10-08T11:05:55.433Z,30
2017-10-08T11:06:55.985Z,30
2017-10-08T11:07:55.678Z,25
2017-10-08T11:08:55.779Z,25
2017-10-08T11:09:55.393Z,25
2017-10-08T11:10:55.736Z,25
2017-10-08T11:11:56.075Z,30
2017-10-08T11:12:55.449Z,35
2017-10-08T11:13:55.793Z,20
2017-10-08T11:14:55.807Z,20
2017-10-08T11:15:56.352Z,25
2017-10-08T11:16:56.165Z,25
2017-10-08T11:17:56.514Z,15
2017-10-08T11:18:56.204Z,10
2017-10-08T11:19:55.764Z,10
2017-10-08T11:20:56.140Z,15
2017-10-08T11:21:56.255Z,25
2017-10-08T11:22:55.633Z,25
2017-10-08T11:23:56.653Z,30
2017-10-08T11:24:55.359Z,25
2017-10-08T11:25:56.021Z,25
2017-10-08T11:26:56.348Z,25
2017-10-08T11:27:56.053Z,25
2017-10-08T11:28:56.065Z,25
2017-10-08T11:29:56.083Z,25
2017-10-08T11:30:56.103Z,25
2017-10-08T11:31:55.467Z,25
2017-10-08T11:32:55.485Z,20
2017-10-08T11:33:55.830Z,20
2017-10-08T11:34:56.831Z,30
2017-10-08T11:35:56.516Z,25
2017-10-08T11:36:56.885Z,20
2017-10-08T11:37:55.984Z,20
2017-10-08T11:38:56.247Z,15
2017-10-08T11:39:55.946Z,15
2017-10-08T11:40:56.928Z,25
2017-10-08T11:41:56.684Z,20
2017-10-08T11:42:56.671Z,20
2017-10-08T11:43:56.346Z,20
2017-10-08T11:44:56.368Z,20
2017-10-08T11:45:56.699Z,20
2017-10-08T11:46:56.391Z,25
2017-10-08T11:47:56.416Z,20
2017-10-08T11:48:56.430Z,20
2017-10-08T11:49:56.131Z,20
2017-10-08T11:50:56.480Z,25
2017-10-08T11:51:56.481Z,25
2017-10-08T11:52:57.148Z,20
2017-10-08T11:53:56.841Z,20
2017-10-08T11:54:56.547Z,20
2017-10-08T11:55:56.563Z,15
2017-10-08T11:56:56.576Z,10
2017-10-08T11:57:56.388Z,15
2017-10-08T11:58:56.300Z,20
2017-10-08T11:59:56.307Z,15
2017-10-08T12:00:56.979Z,20
2017-10-08T12:01:56.347Z,30
2017-10-08T12:02:57.021Z,30
2017-10-08T12:03:56.795Z,20
2017-10-08T12:04:57.047Z,10
2017-10-08T12:05:56.743Z,15
2017-10-08T12:06:56.760Z,15
2017-10-08T12:07:56.786Z,20
2017-10-08T12:08:56.553Z,20
2017-10-08T12:09:57.140Z,10
2017-10-08T12:10:57.161Z,10
2017-10-08T12:11:57.178Z,15
2017-10-08T12:12:56.555Z,20
2017-10-08T12:13:56.902Z,20
2017-10-08T12:14:57.233Z,10
2017-10-08T12:15:56.943Z,5
2017-10-08T12:16:56.946Z,10
2017-10-08T12:17:57.288Z,15
2017-10-08T12:18:56.978Z,15
2017-10-08T12:19:57.321Z,10
2017-10-08T12:20:57.027Z,10
2017-10-08T12:21:56.712Z,15
2017-10-08T12:22:57.386Z,20
2017-10-08T12:23:56.433Z,25
2017-10-08T12:24:56.770Z,20
2017-10-08T12:25:57.769Z,20
2017-10-08T12:26:57.139Z,25
2017-10-08T12:27:57.480Z,30
2017-10-08T12:28:57.497Z,30
2017-10-08T12:29:57.506Z,35
2017-10-08T12:30:56.594Z,45
2017-10-08T12:31:56.580Z,35
2017-10-08T12:32:56.918Z,45
2017-10-08T12:33:57.589Z,40
2017-10-08T12:34:57.606Z,35
2017-10-08T12:35:57.297Z,40
2017-10-08T12:36:57.637Z,30
2017-10-08T12:37:57.013Z,20
2017-10-08T12:38:57.031Z,35
2017-10-08T12:39:57.061Z,40
2017-10-08T12:40:57.075Z,35
2017-10-08T12:41:57.737Z,35
2017-10-08T12:42:57.429Z,60
2017-10-08T12:43:57.782Z,40
2017-10-08T12:44:57.792Z,35
2017-10-08T12:45:57.487Z,30
2017-10-08T12:46:57.501Z,20
2017-10-08T12:47:57.528Z,25
2017-10-08T12:48:57.539Z,15
2017-10-08T12:49:57.641Z,10
2017-10-08T12:50:57.577Z,10
2017-10-08T12:51:57.922Z,10
2017-10-08T12:52:58.261Z,5
2017-10-08T12:53:58.282Z,10
2017-10-08T12:54:58.295Z,15
2017-10-08T12:55:57.355Z,10
2017-10-08T12:56:57.050Z,5
2017-10-08T12:57:57.707Z,5
2017-10-08T12:58:57.730Z,15
2017-10-08T12:59:57.429Z,25
2017-10-08T13:00:57.450Z,20
2017-10-08T13:01:57.792Z,20
2017-10-08T13:02:57.502Z,20
2017-10-08T13:03:57.501Z,15
2017-10-08T13:04:57.535Z,20
2017-10-08T13:05:57.863Z,20
2017-10-08T13:06:57.565Z,15
2017-10-08T13:07:57.578Z,25
2017-10-08T13:08:57.919Z,25
2017-10-08T13:09:58.258Z,10
2017-10-08T13:10:57.653Z,20
2017-10-08T13:11:57.975Z,35
2017-10-08T13:12:57.669Z,20
2017-10-08T13:13:57.706Z,20
2017-10-08T13:14:58.439Z,25
2017-10-08T13:15:58.062Z,30
2017-10-08T13:16:58.396Z,30
2017-10-08T13:17:58.474Z,40
2017-10-08T13:18:58.563Z,40
2017-10-08T13:19:58.260Z,45
2017-10-08T13:20:58.472Z,45
2017-10-08T13:21:58.495Z,40
2017-10-08T13:22:58.184Z,25
2017-10-08T13:23:58.207Z,15
2017-10-08T13:24:58.235Z,10
2017-10-08T13:25:58.314Z,10
2017-10-08T13:26:57.617Z,10
2017-10-08T13:27:57.965Z,5
2017-10-08T13:28:58.322Z,5
2017-10-08T13:29:58.442Z,5
2017-10-08T13:30:58.459Z,10
2017-10-08T13:31:58.362Z,20
2017-10-08T13:32:59.032Z,20
2017-10-08T13:33:58.078Z,20
2017-10-08T13:34:58.425Z,15
2017-10-08T13:35:58.437Z,10
2017-10-08T13:36:58.777Z,5
2017-10-08T13:37:58.471Z,5
2017-10-08T13:38:58.913Z,10
2017-10-08T13:39:58.635Z,10
2017-10-08T13:40:59.229Z,5
2017-10-08T13:41:58.673Z,5
2017-10-08T13:42:58.249Z,10
2017-10-08T13:43:59.353Z,10
2017-10-08T13:44:58.733Z,15
2017-10-08T13:45:57.982Z,15
2017-10-08T13:46:58.973Z,15
2017-10-08T13:47:59.437Z,10
2017-10-08T13:48:58.041Z,10
2017-10-08T13:49:58.826Z,5
2017-10-08T13:50:58.926Z,5
2017-10-08T13:51:59.069Z,10
2017-10-08T13:52:58.551Z,10
2017-10-08T13:53:58.901Z,10
2017-10-08T13:54:58.808Z,15
2017-10-08T13:55:59.025Z,15
2017-10-08T13:56:58.840Z,15
2017-10-08T13:57:59.185Z,10
2017-10-08T13:58:58.926Z,5
2017-10-08T13:59:58.254Z,5
2017-10-08T14:00:58.918Z,5
2017-10-08T14:01:58.295Z,5
2017-10-08T14:02:58.639Z,5
2017-10-08T14:03:58.977Z,5
2017-10-08T14:04:58.995Z,5
2017-10-08T14:05:59.671Z,5
2017-10-08T14:06:58.831Z,5
2017-10-08T14:07:59.062Z,10
2017-10-08T14:08:59.730Z,10
2017-10-08T14:09:59.740Z,10
2017-10-08T14:10:58.790Z,10
2017-10-08T14:11:59.130Z,15
2017-10-08T14:12:59.473Z,15
2017-10-08T14:13:58.850Z,10
2017-10-08T14:14:59.194Z,5
2017-10-08T14:15:59.214Z,5
2017-10-08T14:16:59.228Z,10
2017-10-08T14:17:59.048Z,10
2017-10-08T14:18:59.266Z,10
2017-10-08T14:19:59.943Z,10
2017-10-08T14:20:59.727Z,10
2017-10-08T14:21:59.791Z,10
2017-10-08T14:22:59.025Z,10
2017-10-08T14:23:58.716Z,10
2017-10-08T14:24:59.389Z,10
2017-10-08T14:25:59.404Z,10
2017-10-08T14:26:59.747Z,10
2017-10-08T14:27:59.767Z,10
2017-10-08T14:28:59.781Z,10
2017-10-08T14:29:59.600Z,10
2017-10-08T14:30:59.507Z,10
2017-10-08T14:31:59.966Z,10
2017-10-08T14:32:59.866Z,10
2017-10-08T14:33:59.569Z,10